Time;durP1;ratioP1;P1;durP2;ratioP2;P2;SDS_P1;SDS_P2;PMS_P1;PMS_P2;Temp;Humidity;BMP_temperature;BMP_pressure;BME280_temperature;BME280_humidity;BME280_pressure;Samples;Min_cycle;Max_cycle;Signal;HPM_P1;HPM_P2
2021/08/29 00:00:26;;;;;;;;;;;;;;;;;;5102015;28;19935;-64
2021/08/29 00:03:10;;;;;;;;;;;;;;;;;;5096984;28;19919;-64
2021/08/29 00:05:54;;;;;;;;;;;;;;;;;;5101864;28;20391;-63
2021/08/29 00:08:38;;;;;;;;;;;;;;;;;;5102011;28;19919;-63
2021/08/29 00:11:22;;;;;;;;;;;;;;;;;;5101972;28;19919;-64
2021/08/29 00:14:07;;;;;;;;;;;;;;;;;;5095067;28;19923;-64
2021/08/29 00:16:51;;;;;;;;;;;;;;;;;;5095013;28;20390;-64
2021/08/29 00:19:35;;;;;;;;;;;;;;;;;;5101689;28;19919;-66
2021/08/29 00:22:19;;;;;;;;;;;;;;;;;;5099621;28;19919;-66
2021/08/29 00:25:04;;;;;;;;;;;;;;;;;;5101528;28;19920;-65
2021/08/29 00:27:48;;;;;;;;;;;;;;;;;;5094992;28;19923;-63
2021/08/29 00:30:32;;;;;;;;;;;;;;;;;;5094679;28;19919;-63
2021/08/29 00:33:16;;;;;;;;;;;;;;;;;;5097127;28;19919;-63
2021/08/29 00:36:00;;;;;;;;;;;;;;;;;;5100336;28;19919;-64
2021/08/29 00:38:44;;;;;;;;;;;;;;;;;;5100383;28;19935;-64
2021/08/29 00:41:28;;;;;;;;;;;;;;;;;;5094427;28;19919;-64
2021/08/29 00:44:13;;;;;;;;;;;;;;;;;;5100307;28;20315;-64
2021/08/29 00:46:57;;;;;;;;;;;;;;;;;;5094402;28;19927;-64
2021/08/29 00:49:41;;;;;;;;;;;;;;;;;;5100119;28;20394;-66
2021/08/29 00:52:26;;;;;;;;;;;;;;;;;;5098121;28;19919;-66
2021/08/29 00:58:13;;;;;;;;;;;;;;;;;;5100070;28;19919;-65
2021/08/29 01:00:59;;;;;;;;;;;;;;;;;;5099829;28;19919;-65
2021/08/29 01:03:45;;;;;;;;;;;;;;;;;;5094199;28;19919;-64
2021/08/29 01:06:30;;;;;;;;;;;;;;;;;;5099671;28;19923;-64
2021/08/29 01:09:33;;;;;;;;;;;;;;;;;;5099775;28;19978;-65
2021/08/29 01:12:17;;;;;;;;;;;;;;;;;;5098133;28;19923;-64
2021/08/29 01:15:12;;;;;;;;;;;;;;;;;;5099538;28;20399;-65
2021/08/29 01:21:03;;;;;;;;;;;;;;;;;;5099508;28;20295;-65
2021/08/29 01:23:48;;;;;;;;;;;;;;;;;;5093668;28;19919;-65
2021/08/29 01:29:36;;;;;;;;;;;;;;;;;;5099385;28;19919;-64
2021/08/29 01:32:25;;;;;;;;;;;;;;;;;;5097429;28;19919;-64
2021/08/29 01:35:10;;;;;;;;;;;;;;;;;;5099267;28;19919;-64
2021/08/29 01:38:09;;;;;;;;;;;;;;;;;;5099251;28;20411;-65
2021/08/29 01:40:53;;;;;;;;;;;;;;;;;;5099184;28;19919;-65
2021/08/29 01:43:38;;;;;;;;;;;;;;;;;;5093805;28;19919;-65
2021/08/29 01:46:23;;;;;;;;;;;;;;;;;;5098899;28;20398;-65
2021/08/29 01:49:17;;;;;;;;;;;;;;;;;;5099069;28;19923;-64
2021/08/29 01:52:01;;;;;;;;;;;;;;;;;;5098058;28;20279;-64
2021/08/29 01:54:52;;;;;;;;;;;;;;;;;;5098892;28;19915;-65
2021/08/29 01:57:53;;;;;;;;;;;;;;;;;;5098849;28;19919;-64
2021/08/29 02:00:47;;;;;;;;;;;;;;;;;;5098707;28;19923;-64
2021/08/29 02:03:33;;;;;;;;;;;;;;;;;;5093612;28;19919;-66
2021/08/29 02:06:33;;;;;;;;;;;;;;;;;;5098571;28;19924;-65
2021/08/29 02:09:17;;;;;;;;;;;;;;;;;;5098978;28;19924;-65
2021/08/29 02:12:07;;;;;;;;;;;;;;;;;;5096750;28;19919;-63
2021/08/29 02:14:54;;;;;;;;;;;;;;;;;;5097778;28;19919;-64
2021/08/29 02:17:38;;;;;;;;;;;;;;;;;;5098459;28;19919;-64
2021/08/29 02:20:22;;;;;;;;;;;;;;;;;;5098554;28;19919;-65
2021/08/29 02:23:07;;;;;;;;;;;;;;;;;;5094616;28;19938;-64
2021/08/29 02:25:51;;;;;;;;;;;;;;;;;;5092157;28;20383;-65
2021/08/29 02:28:37;;;;;;;;;;;;;;;;;;5098441;28;20287;-64
2021/08/29 02:34:25;;;;;;;;;;;;;;;;;;5092928;28;19919;-64
2021/08/29 02:37:14;;;;;;;;;;;;;;;;;;5098255;28;19919;-64
2021/08/29 02:43:17;;;;;;;;;;;;;;;;;;5094169;28;19939;-64
2021/08/29 02:46:02;;;;;;;;;;;;;;;;;;5098060;28;19931;-64
2021/08/29 02:48:49;;;;;;;;;;;;;;;;;;5098178;28;20399;-64
2021/08/29 02:51:33;;;;;;;;;;;;;;;;;;5098164;28;20292;-66
2021/08/29 02:54:19;;;;;;;;;;;;;;;;;;5098113;28;19935;-64
2021/08/29 02:57:05;;;;;;;;;;;;;;;;;;5098075;28;19919;-65
2021/08/29 02:59:50;;;;;;;;;;;;;;;;;;5098052;28;19919;-65
2021/08/29 03:02:35;;;;;;;;;;;;;;;;;;5095611;28;19934;-64
2021/08/29 03:05:19;;;;;;;;;;;;;;;;;;5098032;28;19919;-64
2021/08/29 03:08:03;;;;;;;;;;;;;;;;;;5097960;28;20387;-64
2021/08/29 03:10:49;;;;;;;;;;;;;;;;;;5097991;28;19919;-64
2021/08/29 03:13:33;;;;;;;;;;;;;;;;;;5092103;28;19919;-64
2021/08/29 03:16:22;;;;;;;;;;;;;;;;;;5098845;28;20292;-64
2021/08/29 03:19:07;;;;;;;;;;;;;;;;;;5097955;28;19923;-64
2021/08/29 03:22:10;;;;;;;;;;;;;;;;;;5092035;28;20296;-64
2021/08/29 03:27:58;;;;;;;;;;;;;;;;;;5097710;28;19923;-65
2021/08/29 03:30:43;;;;;;;;;;;;;;;;;;5097796;28;19920;-65
2021/08/29 03:33:27;;;;;;;;;;;;;;;;;;5092133;28;19931;-64
2021/08/29 03:36:11;;;;;;;;;;;;;;;;;;5097756;28;19919;-64
2021/08/29 03:38:56;;;;;;;;;;;;;;;;;;5100273;28;19919;-64
2021/08/29 03:41:40;;;;;;;;;;;;;;;;;;5101685;28;19927;-64
2021/08/29 03:44:26;;;;;;;;;;;;;;;;;;5101428;28;19919;-65
2021/08/29 03:47:10;;;;;;;;;;;;;;;;;;5101272;28;20100;-65
2021/08/29 03:49:56;;;;;;;;;;;;;;;;;;5101356;28;19919;-65
2021/08/29 03:52:46;;;;;;;;;;;;;;;;;;5098254;28;19919;-64
2021/08/29 03:55:35;;;;;;;;;;;;;;;;;;5101281;28;19919;-64
2021/08/29 03:58:20;;;;;;;;;;;;;;;;;;5101135;28;19919;-64
2021/08/29 04:01:06;;;;;;;;;;;;;;;;;;5101622;28;19919;-64
2021/08/29 04:03:50;;;;;;;;;;;;;;;;;;5095116;28;19927;-64
2021/08/29 04:06:53;;;;;;;;;;;;;;;;;;5095112;28;19939;-64
2021/08/29 04:09:37;;;;;;;;;;;;;;;;;;5100916;28;19923;-64
2021/08/29 04:12:21;;;;;;;;;;;;;;;;;;5098995;28;20288;-65
2021/08/29 04:15:24;;;;;;;;;;;;;;;;;;5095136;28;19986;-64
2021/08/29 04:18:09;;;;;;;;;;;;;;;;;;5100783;28;19927;-64
2021/08/29 04:20:53;;;;;;;;;;;;;;;;;;5100822;28;20291;-64
2021/08/29 04:23:38;;;;;;;;;;;;;;;;;;5095300;28;19923;-64
2021/08/29 04:26:23;;;;;;;;;;;;;;;;;;5098901;28;19923;-63
2021/08/29 04:29:07;;;;;;;;;;;;;;;;;;5100542;28;19922;-63
2021/08/29 04:34:55;;;;;;;;;;;;;;;;;;5098529;28;20395;-66
2021/08/29 04:37:47;;;;;;;;;;;;;;;;;;5100375;28;19923;-64
2021/08/29 04:40:33;;;;;;;;;;;;;;;;;;5100406;28;20395;-66
2021/08/29 04:43:19;;;;;;;;;;;;;;;;;;5095744;28;19921;-65
2021/08/29 04:46:07;;;;;;;;;;;;;;;;;;5100257;28;19939;-66
2021/08/29 04:48:51;;;;;;;;;;;;;;;;;;5099747;28;19919;-66
2021/08/29 04:51:36;;;;;;;;;;;;;;;;;;5094421;28;20288;-66
2021/08/29 04:54:21;;;;;;;;;;;;;;;;;;5100006;28;19935;-66
2021/08/29 04:57:06;;;;;;;;;;;;;;;;;;5094265;28;19919;-65
2021/08/29 04:59:51;;;;;;;;;;;;;;;;;;5100307;28;19927;-65
2021/08/29 05:02:35;;;;;;;;;;;;;;;;;;5098525;28;20525;-66
2021/08/29 05:05:19;;;;;;;;;;;;;;;;;;5099883;28;20402;-66
2021/08/29 05:08:04;;;;;;;;;;;;;;;;;;5099811;28;19923;-66
2021/08/29 05:10:49;;;;;;;;;;;;;;;;;;5099789;28;19919;-66
2021/08/29 05:13:34;;;;;;;;;;;;;;;;;;5094516;28;20391;-66
2021/08/29 05:16:18;;;;;;;;;;;;;;;;;;5099662;28;19935;-65
2021/08/29 05:22:09;;;;;;;;;;;;;;;;;;5097846;28;19943;-65
2021/08/29 05:25:17;;;;;;;;;;;;;;;;;;5099489;28;19923;-65
2021/08/29 05:28:03;;;;;;;;;;;;;;;;;;5099412;28;19923;-65
2021/08/29 05:30:48;;;;;;;;;;;;;;;;;;5099376;28;19919;-65
2021/08/29 05:33:33;;;;;;;;;;;;;;;;;;5094169;28;19919;-64
2021/08/29 05:36:18;;;;;;;;;;;;;;;;;;5078988;28;20319;-64
2021/08/29 05:39:02;;;;;;;;;;;;;;;;;;5073113;28;19920;-65
2021/08/29 05:41:55;;;;;;;;;;;;;;;;;;5078295;28;19920;-64
2021/08/29 05:44:57;;;;;;;;;;;;;;;;;;5078754;28;19923;-64
2021/08/29 05:47:41;;;;;;;;;;;;;;;;;;5078768;28;20291;-64
2021/08/29 05:50:26;;;;;;;;;;;;;;;;;;5078765;28;19919;-65
2021/08/29 05:53:10;;;;;;;;;;;;;;;;;;5074568;28;19919;-63
2021/08/29 05:55:55;;;;;;;;;;;;;;;;;;5078653;28;19919;-65
2021/08/29 06:01:43;;;;;;;;;;;;;;;;;;5098143;28;20330;-64
2021/08/29 06:07:38;;;;;;;;;;;;;;;;;;5098657;28;19923;-64
2021/08/29 06:10:23;;;;;;;;;;;;;;;;;;5098543;28;19919;-63
2021/08/29 06:16:29;;;;;;;;;;;;;;;;;;5078363;28;19920;-65
2021/08/29 06:19:13;;;;;;;;;;;;;;;;;;5072503;28;19946;-65
2021/08/29 06:21:57;;;;;;;;;;;;;;;;;;5077623;28;19924;-65
2021/08/29 06:24:42;;;;;;;;;;;;;;;;;;5072448;28;19920;-64
2021/08/29 06:27:53;;;;;;;;;;;;;;;;;;5071756;28;19923;-65
2021/08/29 06:31:12;;;;;;;;;;;;;;;;;;5077167;28;19997;-64
2021/08/29 06:34:22;;;;;;;;;;;;;;;;;;5081856;28;19919;-64
2021/08/29 06:37:06;;;;;;;;;;;;;;;;;;5098308;28;19919;-66
2021/08/29 06:39:50;;;;;;;;;;;;;;;;;;5098146;28;19919;-65
2021/08/29 06:42:35;;;;;;;;;;;;;;;;;;5095708;28;19982;-65
2021/08/29 06:45:39;;;;;;;;;;;;;;;;;;5093233;28;19919;-66
2021/08/29 06:48:42;;;;;;;;;;;;;;;;;;5091407;28;19927;-65
2021/08/29 06:51:47;;;;;;;;;;;;;;;;;;5091958;28;20288;-67
2021/08/29 06:54:35;;;;;;;;;;;;;;;;;;5099027;28;19915;-66
2021/08/29 06:57:42;;;;;;;;;;;;;;;;;;5092270;28;19927;-66
2021/08/29 07:00:27;;;;;;;;;;;;;;;;;;5096761;28;19919;-65
2021/08/29 07:03:13;;;;;;;;;;;;;;;;;;5093956;28;19919;-66
2021/08/29 07:05:58;;;;;;;;;;;;;;;;;;5098194;28;19923;-67
2021/08/29 07:09:02;;;;;;;;;;;;;;;;;;5092858;28;19919;-67
2021/08/29 07:11:48;;;;;;;;;;;;;;;;;;5098507;28;19939;-66
2021/08/29 07:15:04;;;;;;;;;;;;;;;;;;5103013;28;19915;-66
2021/08/29 07:17:49;;;;;;;;;;;;;;;;;;5101892;28;19919;-64
2021/08/29 07:24:15;;;;;;;;;;;;;;;;;;5103035;28;19919;-68
2021/08/29 07:27:18;;;;;;;;;;;;;;;;;;5095847;28;19923;-68
2021/08/29 07:30:21;;;;;;;;;;;;;;;;;;5095845;28;19920;-69
2021/08/29 07:33:12;;;;;;;;;;;;;;;;;;5097529;28;19919;-68
2021/08/29 07:39:23;;;;;;;;;;;;;;;;;;5101810;28;19919;-71
2021/08/29 07:42:25;;;;;;;;;;;;;;;;;;5095914;28;19919;-70
2021/08/29 07:45:10;;;;;;;;;;;;;;;;;;5095633;28;19919;-67
2021/08/29 07:47:55;;;;;;;;;;;;;;;;;;5101419;28;20425;-68
2021/08/29 07:50:39;;;;;;;;;;;;;;;;;;5085118;28;20003;-68
2021/08/29 07:53:25;;;;;;;;;;;;;;;;;;5103913;22;19936;-81
2021/08/29 07:56:47;;;;;;;;;;;;;;;;;;5048118;28;20289;-81
2021/08/29 07:59:32;;;;;;;;;;;;;;;;;;5036505;28;19920;-82
2021/08/29 08:02:16;;;;;;;;;;;;;;;;;;5038809;28;19920;-78
2021/08/29 08:05:20;;;;;;;;;;;;;;;;;;5043011;28;19920;-78
2021/08/29 08:08:24;;;;;;;;;;;;;;;;;;5042496;28;19928;-78
2021/08/29 08:11:31;;;;;;;;;;;;;;;;;;5038951;28;19928;-79
2021/08/29 08:14:16;;;;;;;;;;;;;;;;;;5039168;28;19920;-79
2021/08/29 08:17:00;;;;;;;;;;;;;;;;;;5039432;28;19920;-78
2021/08/29 08:22:52;;;;;;;;;;;;;;;;;;5039291;28;19932;-77
2021/08/29 08:25:56;;;;;;;;;;;;;;;;;;5040326;28;19936;-80
2021/08/29 08:29:19;;;;;;;;;;;;;;;;;;5032426;28;20008;-81
2021/08/29 08:35:52;;;;;;;;;;;;;;;;;;5036939;28;19924;-83
2021/08/29 08:38:54;;;;;;;;;;;;;;;;;;5036661;28;20420;-81
2021/08/29 08:42:02;;;;;;;;;;;;;;;;;;5035243;28;19937;-79
2021/08/29 08:48:23;;;;;;;;;;;;;;;;;;5033869;28;20306;-79
2021/08/29 08:51:26;;;;;;;;;;;;;;;;;;5033313;28;19920;-81
2021/08/29 08:54:26;;;;;;;;;;;;;;;;;;5034418;28;19932;-79
2021/08/29 08:57:29;;;;;;;;;;;;;;;;;;5034011;28;19920;-80
2021/08/29 09:00:24;;;;;;;;;;;;;;;;;;5035963;28;19920;-78
2021/08/29 09:03:28;;;;;;;;;;;;;;;;;;5026301;28;19928;-78
2021/08/29 09:06:28;;;;;;;;;;;;;;;;;;5032219;28;19924;-80
2021/08/29 09:09:12;;;;;;;;;;;;;;;;;;5036449;28;19920;-80
2021/08/29 09:11:57;;;;;;;;;;;;;;;;;;5033133;28;19920;-80
2021/08/29 09:14:42;;;;;;;;;;;;;;;;;;5032860;28;19924;-78
2021/08/29 09:17:29;;;;;;;;;;;;;;;;;;5035737;28;19921;-79
2021/08/29 09:20:16;;;;;;;;;;;;;;;;;;5034163;28;20942;-81
2021/08/29 09:23:01;;;;;;;;;;;;;;;;;;5039137;28;20408;-80
2021/08/29 09:26:01;;;;;;;;;;;;;;;;;;5036512;28;19921;-79
2021/08/29 09:29:06;;;;;;;;;;;;;;;;;;5033064;28;19932;-80
2021/08/29 09:31:50;;;;;;;;;;;;;;;;;;5034516;28;19920;-81
2021/08/29 09:34:43;;;;;;;;;;;;;;;;;;5038791;28;20301;-81
2021/08/29 09:37:28;;;;;;;;;;;;;;;;;;5037905;28;19920;-82
2021/08/29 09:40:19;;;;;;;;;;;;;;;;;;5032873;28;19920;-80
2021/08/29 09:43:25;;;;;;;;;;;;;;;;;;5035170;28;20289;-81
2021/08/29 09:46:09;;;;;;;;;;;;;;;;;;5034754;28;19920;-81
2021/08/29 09:52:31;;;;;;;;;;;;;;;;;;5034892;28;19924;-80
2021/08/29 09:55:29;;;;;;;;;;;;;;;;;;5031737;28;19936;-80
2021/08/29 09:58:32;;;;;;;;;;;;;;;;;;5026999;28;19924;-80
2021/08/29 10:01:27;;;;;;;;;;;;;;;;;;5029255;28;19920;-80
2021/08/29 10:04:40;;;;;;;;;;;;;;;;;;5031128;28;19920;-81
2021/08/29 10:07:25;;;;;;;;;;;;;;;;;;5032748;28;19924;-80
2021/08/29 10:10:09;;;;;;;;;;;;;;;;;;5036599;28;19921;-80
2021/08/29 10:12:53;;;;;;;;;;;;;;;;;;5034636;28;19921;-80
2021/08/29 10:15:38;;;;;;;;;;;;;;;;;;5032794;28;20297;-79
2021/08/29 10:18:41;;;;;;;;;;;;;;;;;;5029196;28;19924;-80
2021/08/29 10:21:55;;;;;;;;;;;;;;;;;;5025848;28;19921;-80
2021/08/29 10:24:39;;;;;;;;;;;;;;;;;;5029625;28;20397;-80
2021/08/29 10:27:25;;;;;;;;;;;;;;;;;;5033890;28;19924;-80
2021/08/29 10:34:00;;;;;;;;;;;;;;;;;;5034550;28;19977;-80
2021/08/29 10:36:44;;;;;;;;;;;;;;;;;;5028519;28;20412;-80
2021/08/29 10:39:55;;;;;;;;;;;;;;;;;;5030948;28;19920;-78
2021/08/29 10:43:03;;;;;;;;;;;;;;;;;;5028372;28;19920;-80
2021/08/29 10:46:06;;;;;;;;;;;;;;;;;;5030105;28;19928;-79
2021/08/29 10:49:09;;;;;;;;;;;;;;;;;;5033184;28;19924;-82
2021/08/29 10:51:58;;;;;;;;;;;;;;;;;;5039919;28;19920;-82
2021/08/29 10:54:42;;;;;;;;;;;;;;;;;;5029840;28;19928;-83
2021/08/29 11:00:34;;;;;;;;;;;;;;;;;;5034941;28;19921;-84
2021/08/29 11:03:29;;;;;;;;;;;;;;;;;;5034237;28;19980;-80
2021/08/29 11:06:32;;;;;;;;;;;;;;;;;;5031151;28;19924;-81
2021/08/29 11:12:23;;;;;;;;;;;;;;;;;;5040017;28;19920;-82
2021/08/29 11:15:13;;;;;;;;;;;;;;;;;;5034107;28;19920;-83
2021/08/29 11:18:01;;;;;;;;;;;;;;;;;;5027890;28;19936;-82
2021/08/29 11:20:57;;;;;;;;;;;;;;;;;;5045295;28;19920;-82
2021/08/29 11:24:02;;;;;;;;;;;;;;;;;;5024247;28;19924;-80
2021/08/29 11:26:49;;;;;;;;;;;;;;;;;;5032312;28;20404;-81
2021/08/29 11:29:53;;;;;;;;;;;;;;;;;;5033008;28;19924;-81
2021/08/29 11:32:43;;;;;;;;;;;;;;;;;;5032284;28;20400;-82
2021/08/29 11:38:51;;;;;;;;;;;;;;;;;;5026982;28;19920;-82
2021/08/29 11:41:35;;;;;;;;;;;;;;;;;;5040216;28;19921;-82
2021/08/29 11:44:20;;;;;;;;;;;;;;;;;;5039226;28;19948;-80
2021/08/29 11:47:04;;;;;;;;;;;;;;;;;;5041935;28;20549;-80
2021/08/29 11:50:07;;;;;;;;;;;;;;;;;;5028830;28;19920;-81
2021/08/29 11:53:02;;;;;;;;;;;;;;;;;;5033552;28;19928;-82
2021/08/29 11:55:46;;;;;;;;;;;;;;;;;;5037922;28;19920;-81
2021/08/29 11:58:32;;;;;;;;;;;;;;;;;;5028867;28;19920;-81
2021/08/29 12:01:16;;;;;;;;;;;;;;;;;;5036823;28;19920;-81
2021/08/29 12:04:02;;;;;;;;;;;;;;;;;;5043170;28;19924;-81
2021/08/29 12:06:51;;;;;;;;;;;;;;;;;;5036560;28;20150;-82
2021/08/29 12:10:02;;;;;;;;;;;;;;;;;;5037331;28;19924;-81
2021/08/29 12:13:12;;;;;;;;;;;;;;;;;;5029594;28;19925;-80
2021/08/29 12:16:15;;;;;;;;;;;;;;;;;;5033294;28;19920;-82
2021/08/29 12:19:29;;;;;;;;;;;;;;;;;;5031808;28;19944;-83
2021/08/29 12:22:36;;;;;;;;;;;;;;;;;;5025513;28;19920;-82
2021/08/29 12:25:31;;;;;;;;;;;;;;;;;;5034980;28;19921;-82
2021/08/29 12:31:18;;;;;;;;;;;;;;;;;;5027592;28;19937;-82
2021/08/29 12:34:03;;;;;;;;;;;;;;;;;;5038464;28;19997;-82
2021/08/29 12:36:48;;;;;;;;;;;;;;;;;;5036500;28;20289;-83
2021/08/29 12:39:32;;;;;;;;;;;;;;;;;;5040848;28;19940;-84
2021/08/29 12:42:17;;;;;;;;;;;;;;;;;;5038796;28;20341;-86
2021/08/29 12:45:05;;;;;;;;;;;;;;;;;;5035902;28;19928;-85
2021/08/29 12:47:50;;;;;;;;;;;;;;;;;;5035700;28;19924;-84
2021/08/29 12:50:34;;;;;;;;;;;;;;;;;;5037147;28;19928;-84
2021/08/29 12:53:18;;;;;;;;;;;;;;;;;;5033680;28;19924;-81
2021/08/29 12:56:02;;;;;;;;;;;;;;;;;;5035646;28;19924;-81
2021/08/29 12:58:46;;;;;;;;;;;;;;;;;;5034887;28;20297;-80
2021/08/29 13:01:31;;;;;;;;;;;;;;;;;;5034930;28;19920;-82
2021/08/29 13:04:16;;;;;;;;;;;;;;;;;;5035646;28;19920;-81
2021/08/29 13:07:08;;;;;;;;;;;;;;;;;;5030369;28;19952;-80
2021/08/29 13:09:52;;;;;;;;;;;;;;;;;;5037048;28;19924;-79
2021/08/29 13:12:38;;;;;;;;;;;;;;;;;;5033410;28;19988;-80
2021/08/29 13:15:22;;;;;;;;;;;;;;;;;;5029945;28;19928;-80
2021/08/29 13:21:10;;;;;;;;;;;;;;;;;;5032551;28;19920;-81
2021/08/29 13:23:54;;;;;;;;;;;;;;;;;;5037877;28;19920;-80
2021/08/29 13:26:38;;;;;;;;;;;;;;;;;;5035349;28;19920;-80
2021/08/29 13:29:22;;;;;;;;;;;;;;;;;;5034271;28;19924;-81
2021/08/29 13:32:07;;;;;;;;;;;;;;;;;;5038065;28;19920;-83
2021/08/29 13:34:51;;;;;;;;;;;;;;;;;;5036099;28;20293;-82
2021/08/29 13:40:39;;;;;;;;;;;;;;;;;;5036940;28;19920;-85
2021/08/29 13:46:32;;;;;;;;;;;;;;;;;;5032572;28;19924;-84
2021/08/29 13:49:16;;;;;;;;;;;;;;;;;;5036589;28;19924;-84
2021/08/29 13:52:00;;;;;;;;;;;;;;;;;;5037230;28;19928;-86
2021/08/29 13:54:45;;;;;;;;;;;;;;;;;;5042371;28;19932;-86
2021/08/29 13:57:36;;;;;;;;;;;;;;;;;;5040159;28;19920;-88
2021/08/29 14:00:23;;;;;;;;;;;;;;;;;;5037041;28;19936;-86
2021/08/29 14:03:07;;;;;;;;;;;;;;;;;;5036036;28;20297;-86
2021/08/29 14:05:51;;;;;;;;;;;;;;;;;;5041867;28;20252;-83
2021/08/29 14:08:36;;;;;;;;;;;;;;;;;;5037103;28;19936;-84
2021/08/29 14:11:21;;;;;;;;;;;;;;;;;;5039947;28;19920;-82
2021/08/29 14:14:05;;;;;;;;;;;;;;;;;;5043038;28;19944;-81
2021/08/29 14:16:49;;;;;;;;;;;;;;;;;;5044472;28;19920;-82
2021/08/29 14:19:52;;;;;;;;;;;;;;;;;;5038572;28;19923;-81
2021/08/29 14:22:36;;;;;;;;;;;;;;;;;;5041918;28;19920;-81
2021/08/29 14:25:39;;;;;;;;;;;;;;;;;;5039114;28;20278;-81
2021/08/29 14:28:24;;;;;;;;;;;;;;;;;;5037609;28;20297;-81
2021/08/29 14:31:08;;;;;;;;;;;;;;;;;;5042584;28;20379;-82
2021/08/29 14:33:53;;;;;;;;;;;;;;;;;;5040480;28;19921;-81
2021/08/29 14:36:37;;;;;;;;;;;;;;;;;;5035414;28;19936;-81
2021/08/29 14:39:21;;;;;;;;;;;;;;;;;;5040525;28;20293;-81
2021/08/29 14:42:06;;;;;;;;;;;;;;;;;;5038692;28;19920;-81
2021/08/29 14:44:52;;;;;;;;;;;;;;;;;;5034202;28;19967;-82
2021/08/29 14:47:37;;;;;;;;;;;;;;;;;;5036964;28;19928;-83
2021/08/29 14:50:23;;;;;;;;;;;;;;;;;;5037116;28;19928;-81
2021/08/29 14:53:11;;;;;;;;;;;;;;;;;;5031194;28;19924;-81
2021/08/29 14:58:58;;;;;;;;;;;;;;;;;;5035639;28;19921;-80
2021/08/29 15:01:42;;;;;;;;;;;;;;;;;;5034706;28;19924;-81
2021/08/29 15:04:27;;;;;;;;;;;;;;;;;;5038738;28;19920;-80
2021/08/29 15:07:30;;;;;;;;;;;;;;;;;;5034673;28;19932;-81
2021/08/29 15:16:21;;;;;;;;;;;;;;;;;;5037144;28;19920;-81
2021/08/29 15:19:05;;;;;;;;;;;;;;;;;;5035731;28;19928;-80
2021/08/29 15:24:53;;;;;;;;;;;;;;;;;;5035489;28;19997;-80
2021/08/29 15:27:37;;;;;;;;;;;;;;;;;;5034701;28;19924;-81
2021/08/29 15:30:21;;;;;;;;;;;;;;;;;;5033206;28;19920;-81
2021/08/29 15:36:09;;;;;;;;;;;;;;;;;;5038185;28;19920;-81
2021/08/29 15:38:53;;;;;;;;;;;;;;;;;;5033867;28;19928;-81
2021/08/29 15:41:37;;;;;;;;;;;;;;;;;;5038808;28;19920;-79
2021/08/29 15:44:41;;;;;;;;;;;;;;;;;;5033997;28;19921;-80
2021/08/29 15:47:25;;;;;;;;;;;;;;;;;;5036766;28;19931;-81
2021/08/29 15:50:09;;;;;;;;;;;;;;;;;;5035391;28;19920;-80
2021/08/29 15:52:53;;;;;;;;;;;;;;;;;;5034858;28;20290;-81
2021/08/29 15:55:37;;;;;;;;;;;;;;;;;;5033921;28;19924;-81
2021/08/29 15:58:23;;;;;;;;;;;;;;;;;;5035311;28;19954;-81
2021/08/29 16:01:07;;;;;;;;;;;;;;;;;;5036116;28;19924;-80
2021/08/29 16:03:52;;;;;;;;;;;;;;;;;;5033673;28;20488;-81
2021/08/29 16:06:36;;;;;;;;;;;;;;;;;;5037912;28;19920;-80
2021/08/29 16:09:20;;;;;;;;;;;;;;;;;;5036266;28;19924;-80
2021/08/29 16:12:04;;;;;;;;;;;;;;;;;;5034770;28;19920;-80
2021/08/29 16:14:48;;;;;;;;;;;;;;;;;;5038163;28;20404;-80
2021/08/29 16:17:33;;;;;;;;;;;;;;;;;;5037309;28;19920;-80
2021/08/29 16:20:17;;;;;;;;;;;;;;;;;;5035628;28;20396;-81
2021/08/29 16:23:01;;;;;;;;;;;;;;;;;;5039383;28;19936;-81
2021/08/29 16:25:45;;;;;;;;;;;;;;;;;;5037809;28;20305;-80
2021/08/29 16:28:29;;;;;;;;;;;;;;;;;;5034742;28;19924;-81
2021/08/29 16:31:13;;;;;;;;;;;;;;;;;;5037268;28;19928;-80
2021/08/29 16:33:57;;;;;;;;;;;;;;;;;;5036222;28;19920;-80
2021/08/29 16:36:43;;;;;;;;;;;;;;;;;;5034770;28;19924;-80
2021/08/29 16:39:27;;;;;;;;;;;;;;;;;;5033889;28;19935;-82
2021/08/29 16:42:12;;;;;;;;;;;;;;;;;;5037571;28;19920;-80
2021/08/29 16:44:55;;;;;;;;;;;;;;;;;;5033661;28;19921;-80
2021/08/29 16:47:40;;;;;;;;;;;;;;;;;;5032475;28;20528;-81
2021/08/29 16:50:43;;;;;;;;;;;;;;;;;;5033187;28;20411;-80
2021/08/29 16:53:28;;;;;;;;;;;;;;;;;;5033953;28;19924;-80
2021/08/29 16:56:13;;;;;;;;;;;;;;;;;;5038452;28;19928;-80
2021/08/29 16:58:57;;;;;;;;;;;;;;;;;;5037710;28;19936;-80
2021/08/29 17:01:41;;;;;;;;;;;;;;;;;;5046481;28;19920;-81
2021/08/29 17:04:26;;;;;;;;;;;;;;;;;;5047464;28;19920;-82
2021/08/29 17:07:10;;;;;;;;;;;;;;;;;;5050107;28;19920;-81
2021/08/29 17:10:13;;;;;;;;;;;;;;;;;;5045587;28;19921;-82
2021/08/29 17:12:58;;;;;;;;;;;;;;;;;;5048931;28;19920;-82
2021/08/29 17:18:45;;;;;;;;;;;;;;;;;;5042665;28;19955;-82
2021/08/29 17:21:29;;;;;;;;;;;;;;;;;;5043844;28;19920;-81
2021/08/29 17:24:13;;;;;;;;;;;;;;;;;;5043302;28;19936;-79
2021/08/29 17:26:58;;;;;;;;;;;;;;;;;;5041484;28;20301;-80
2021/08/29 17:29:42;;;;;;;;;;;;;;;;;;5044840;28;20401;-81
2021/08/29 17:32:26;;;;;;;;;;;;;;;;;;5039649;28;19920;-80
2021/08/29 17:35:11;;;;;;;;;;;;;;;;;;5036324;28;19921;-82
2021/08/29 17:37:55;;;;;;;;;;;;;;;;;;5036233;28;19921;-80
2021/08/29 17:40:39;;;;;;;;;;;;;;;;;;5039124;28;19921;-79
2021/08/29 17:43:23;;;;;;;;;;;;;;;;;;5035688;28;19920;-81
2021/08/29 17:46:08;;;;;;;;;;;;;;;;;;5039914;28;19951;-81
2021/08/29 17:48:52;;;;;;;;;;;;;;;;;;5036326;28;20349;-81
2021/08/29 17:51:37;;;;;;;;;;;;;;;;;;5033676;28;19920;-81
2021/08/29 17:54:40;;;;;;;;;;;;;;;;;;5032790;28;19924;-81
2021/08/29 17:57:24;;;;;;;;;;;;;;;;;;5037023;28;19921;-79
2021/08/29 18:00:08;;;;;;;;;;;;;;;;;;5034496;28;19920;-79
2021/08/29 18:02:56;;;;;;;;;;;;;;;;;;5034000;28;19920;-79
2021/08/29 18:05:40;;;;;;;;;;;;;;;;;;5035927;28;20393;-79
2021/08/29 18:08:25;;;;;;;;;;;;;;;;;;5033653;28;19924;-81
2021/08/29 18:11:09;;;;;;;;;;;;;;;;;;5039096;28;19919;-82
2021/08/29 18:13:54;;;;;;;;;;;;;;;;;;5035710;28;19920;-82
2021/08/29 18:16:39;;;;;;;;;;;;;;;;;;5032728;28;19920;-82
2021/08/29 18:19:23;;;;;;;;;;;;;;;;;;5032866;28;19925;-82
2021/08/29 18:25:10;;;;;;;;;;;;;;;;;;5034121;28;19920;-81
2021/08/29 18:27:54;;;;;;;;;;;;;;;;;;5033086;28;19932;-83
2021/08/29 18:30:39;;;;;;;;;;;;;;;;;;5037608;28;19920;-82
2021/08/29 18:33:23;;;;;;;;;;;;;;;;;;5037132;28;19944;-82
2021/08/29 18:36:07;;;;;;;;;;;;;;;;;;5031254;28;19920;-81
2021/08/29 18:39:11;;;;;;;;;;;;;;;;;;5030240;28;19921;-81
2021/08/29 18:41:55;;;;;;;;;;;;;;;;;;5039426;28;19928;-82
2021/08/29 18:44:40;;;;;;;;;;;;;;;;;;5037762;28;19920;-82
2021/08/29 18:47:24;;;;;;;;;;;;;;;;;;5035397;28;19928;-81
2021/08/29 18:50:10;;;;;;;;;;;;;;;;;;5034086;28;19920;-82
2021/08/29 18:52:55;;;;;;;;;;;;;;;;;;5037559;28;19924;-83
2021/08/29 18:55:39;;;;;;;;;;;;;;;;;;5035676;28;20396;-81
2021/08/29 18:58:26;;;;;;;;;;;;;;;;;;5032079;28;20408;-81
2021/08/29 19:01:11;;;;;;;;;;;;;;;;;;5034378;28;20408;-82
2021/08/29 19:03:55;;;;;;;;;;;;;;;;;;5035647;28;19920;-81
2021/08/29 19:06:41;;;;;;;;;;;;;;;;;;5033505;28;19920;-82
2021/08/29 19:09:25;;;;;;;;;;;;;;;;;;5040028;28;19940;-81
2021/08/29 19:12:11;;;;;;;;;;;;;;;;;;5036853;28;19920;-82
2021/08/29 19:14:55;;;;;;;;;;;;;;;;;;5037106;28;19920;-81
2021/08/29 19:18:02;;;;;;;;;;;;;;;;;;5035278;28;19921;-82
2021/08/29 19:21:07;;;;;;;;;;;;;;;;;;5037002;28;19920;-81
2021/08/29 19:23:51;;;;;;;;;;;;;;;;;;5035758;28;19920;-83
2021/08/29 19:26:37;;;;;;;;;;;;;;;;;;5042937;28;19984;-83
2021/08/29 19:29:22;;;;;;;;;;;;;;;;;;5025790;28;19995;-82
2021/08/29 19:32:07;;;;;;;;;;;;;;;;;;5034291;28;20412;-80
2021/08/29 19:34:52;;;;;;;;;;;;;;;;;;5036524;28;19920;-82
2021/08/29 19:37:39;;;;;;;;;;;;;;;;;;5030913;28;19928;-82
2021/08/29 19:40:24;;;;;;;;;;;;;;;;;;5032829;28;19920;-82
2021/08/29 19:43:09;;;;;;;;;;;;;;;;;;5038025;28;19928;-82
2021/08/29 19:45:54;;;;;;;;;;;;;;;;;;5038263;28;20384;-83
2021/08/29 19:48:38;;;;;;;;;;;;;;;;;;5034505;28;19959;-83
2021/08/29 19:51:23;;;;;;;;;;;;;;;;;;5039598;28;20396;-82
2021/08/29 19:54:08;;;;;;;;;;;;;;;;;;5036654;28;19924;-82
2021/08/29 19:56:52;;;;;;;;;;;;;;;;;;5034115;28;19924;-82
2021/08/29 19:59:36;;;;;;;;;;;;;;;;;;5036525;28;20385;-82
2021/08/29 20:02:22;;;;;;;;;;;;;;;;;;5034820;28;19920;-82
2021/08/29 20:05:07;;;;;;;;;;;;;;;;;;5037918;28;19920;-83
2021/08/29 20:08:12;;;;;;;;;;;;;;;;;;5040998;28;20534;-84
2021/08/29 20:10:57;;;;;;;;;;;;;;;;;;5041189;28;19928;-83
2021/08/29 20:13:41;;;;;;;;;;;;;;;;;;5039079;28;20308;-83
2021/08/29 20:16:30;;;;;;;;;;;;;;;;;;5040705;28;20313;-81
2021/08/29 20:19:35;;;;;;;;;;;;;;;;;;5034161;28;19980;-82
2021/08/29 20:22:20;;;;;;;;;;;;;;;;;;5040753;28;20466;-82
2021/08/29 20:25:06;;;;;;;;;;;;;;;;;;5039414;28;19920;-81
2021/08/29 20:31:14;;;;;;;;;;;;;;;;;;5039336;28;20293;-79
2021/08/29 20:34:00;;;;;;;;;;;;;;;;;;5034232;28;19992;-79
2021/08/29 20:36:45;;;;;;;;;;;;;;;;;;5034821;28;19920;-81
2021/08/29 20:39:29;;;;;;;;;;;;;;;;;;5038010;28;19920;-81
2021/08/29 20:42:16;;;;;;;;;;;;;;;;;;5037093;28;19921;-81
2021/08/29 20:45:00;;;;;;;;;;;;;;;;;;5034408;28;19962;-82
2021/08/29 20:47:46;;;;;;;;;;;;;;;;;;5036315;28;19932;-81
2021/08/29 20:50:30;;;;;;;;;;;;;;;;;;5036397;28;19921;-81
2021/08/29 20:53:15;;;;;;;;;;;;;;;;;;5035104;28;19924;-81
2021/08/29 20:56:02;;;;;;;;;;;;;;;;;;5037597;28;19920;-83